Saguache, CO

04:33 MDT le 31 octobre 2014 (GMT -0600)
Saguache | Change Station
CLOSE
Current Station
Aéroport
Location: Saguache,
Altitude: 7825 ft
Stations météo à proximité

Alt. 7825 ft 38.10 °N, 106.17 °W | Updated 20 minutes ago

Ciel dégagé
Ciel dégagé
32 ° F
Paraît 22 ° F
N
13
Vent Variable Vent de NNO

Aujourd'hui
Haut(e) -- | Bas -- ° F
--% Risque de précip.
Hier
Haut(e) -- | Bas -- ° F
Precip. -- pouce
7:29 AM 6:06 PM
Premier quartier, 54% visible
Pression 30.42 pouce
Visibilité 10.0 Miles terrestres
Nuages Ciel dégagé
Refroidissement éolien 22 ° F
Point de rosée 16 ° F
Humidité 51%
Précipitations 0.00 pouce
Profondeur de la couche neigeuse Non disponible.
UV 0 sur 12
Pollen 1.40 sur 12
Qualité de l'air Non disponible.
Flu Activity Non disponible.
METAR K04V 311013Z AUTO 33011KT 10SM CLR 00/M09 A3042 RMK AO2

More Conditions Fewer Conditions

Pression 30.42 pouce
Visibilité 10.0 Miles terrestres
Nuages Ciel dégagé
Refroidissement éolien 22 ° F
Point de rosée 16 ° F
Humidité 51%
Précipitations 0.00 pouce
Profondeur de la couche neigeuse Non disponible.
UV 0 sur 12
Pollen 1.40 sur 12
Qualité de l'air Non disponible.
Flu Activity Non disponible.
METAR K04V 311013Z AUTO 33011KT 10SM CLR 00/M09 A3042 RMK AO2

More Conditions Fewer Conditions

10-Day Weather Forecast

Almanac

Astronomie

Oct. 31, 2014 Lever Coucher
Temps réel
Crépuscule civil
Crépuscule nautique
Crépuscule astronomique
Lune
Durée de lumière visible
Longueur du jour
Tomorrow will be .
, % of the Moon is Illuminated

Extrêmes aujourd'hui

State Highs State Lows

Community

WunderPhotos

Upload Photos

1,766,580 Photos téléchargées !

WunderBlogs® & News

Nearby

Qualité de l'air

  Qualité de l'air Indice de la qualité de l'air Polluant
Not available.

Épaisseur de neige

Station Depth Altitude

Activité sismique

Ville Distance Mag. Time & Date
Minimum magnitude displayed is 2.5.

Températures des eaux côtières

Lieu Température

Stations météo à proximité